This is the latest recevied weather packets stored in our database for station/object KM4CNW. If no packets are shown the sender has not sent any weather packets the latest 1 day(s).
| Time | Temp. | Humidity | Pressure | Rain* | Wind** | Luminosity | Snow |
|---|---|---|---|---|---|---|---|
| 1778089657 | 17.78° C | 86% | 1008.7 hPa | 1.78 mm | - | 122 W/m² | - |
| 1778088748 | 18.33° C | 80% | 1009.5 hPa | 1.27 mm | - | 47 W/m² | - |
| 1778088445 | 19.44° C | 76% | 1009.6 hPa | 3.05 mm | - | 68 W/m² | - |
| 1778086325 | 23.33° C | 57% | 1008.6 hPa | 0 mm | - | 231 W/m² | - |
| 1778084202 | 22.78° C | 59% | 1008.4 hPa | 0 mm | - | 224 W/m² | - |
| 1778083293 | 22.78° C | 59% | 1008.2 hPa | 0 mm | - | 212 W/m² | - |
| 1778082688 | 21.67° C | 63% | 1008 hPa | 0 mm | - | 310 W/m² | - |
| 1778080939 | 20.56° C | 67% | 1007.7 hPa | 0 mm | - | 249 W/m² | - |
| 1778080638 | 20.56° C | 68% | 1007.9 hPa | 0 mm | - | 202 W/m² | - |
| 1778080334 | 20° C | 69% | 1007.7 hPa | 0 mm | - | 192 W/m² | - |
| 1778080030 | 20° C | 68% | 1007.8 hPa | 0 mm | - | 108 W/m² | - |
| 1778079121 | 20° C | 69% | 1008.2 hPa | 0 mm | - | 90 W/m² | - |
| 1778078819 | 20° C | 69% | 1008.2 hPa | 0 mm | - | 100 W/m² | - |
| 1778077609 | 20° C | 69% | 1008.3 hPa | 0 mm | - | 97 W/m² | - |
| 1778077004 | 20° C | 69% | 1008.4 hPa | 0 mm | - | 124 W/m² | - |
| 1778073974 | 18.33° C | 69% | 1007.9 hPa | 0 mm | - | 115 W/m² | - |
| 1778072459 | 18.33° C | 70% | 1007.8 hPa | 0 mm | - | 127 W/m² | - |
| 1778071552 | 17.78° C | 70% | 1008.3 hPa | 0 mm | - | 117 W/m² | - |
| 1778070040 | 17.78° C | 71% | 1008.9 hPa | 0 mm | - | 60 W/m² | - |
| 1778069737 | 17.78° C | 71% | 1008.9 hPa | 0 mm | - | 41 W/m² | - |
| 1778069433 | 17.78° C | 71% | 1008.8 hPa | 0 mm | - | 45 W/m² | - |
| 1778068526 | 17.22° C | 71% | 1008.8 hPa | 0 mm | - | 78 W/m² | - |
| 1778067620 | 16.67° C | 73% | 1008.4 hPa | 0 mm | - | 46 W/m² | - |
| 1778066711 | 16.67° C | 73% | 1008.1 hPa | 0 mm | - | 31 W/m² | - |
| 1778065501 | 16.67° C | 74% | 1007.7 hPa | 0 mm | - | 27 W/m² | - |
* Rain latest hour (hover to see other rain measurements)
** Current wind speed in m/s (hover to see current wind gust speed)